Time;durP1;ratioP1;P1;durP2;ratioP2;P2;SDS_P1;SDS_P2;PMS_P1;PMS_P2;Temp;Humidity;BMP_temperature;BMP_pressure;BME280_temperature;BME280_humidity;BME280_pressure;Samples;Min_cycle;Max_cycle;Signal;HPM_P1;HPM_P2
2022/07/26 00:02:04;;;;;;;7.13;5.57;;;;;;;25.16;55.04;98737.59;5150456;27;20023;-74
2022/07/26 00:04:29;;;;;;;5.90;5.10;;;;;;;25.11;55.02;98727.47;5150472;27;20019;-74
2022/07/26 00:06:55;;;;;;;5.43;4.93;;;;;;;25.07;54.98;98737.97;5150329;27;20244;-75
2022/07/26 00:09:21;;;;;;;5.53;5.03;;;;;;;25.05;55.14;98731.97;5150353;27;20033;-74
2022/07/26 00:11:47;;;;;;;8.20;5.93;;;;;;;25.06;55.25;98732.81;5150325;27;20030;-73
2022/07/26 00:14:12;;;;;;;7.88;5.78;;;;;;;24.99;55.27;98728.31;5150317;27;20272;-74
2022/07/26 00:16:39;;;;;;;6.28;5.50;;;;;;;24.97;55.35;98718.78;5150398;27;20060;-74
2022/07/26 00:19:06;;;;;;;6.38;4.82;;;;;;;24.98;55.21;98731.28;5150039;27;20177;-74
2022/07/26 00:21:33;;;;;;;8.95;5.78;;;;;;;24.95;55.53;98721.72;5149195;27;20023;-75
2022/07/26 00:23:59;;;;;;;9.43;5.68;;;;;;;24.91;55.36;98722.44;5150043;27;20023;-74
2022/07/26 00:26:24;;;;;;;6.20;5.25;;;;;;;24.86;55.68;98725.00;5149857;27;20041;-74
2022/07/26 00:28:50;;;;;;;6.35;5.70;;;;;;;24.87;55.69;98724.78;5149988;27;20178;-74
2022/07/26 00:31:15;;;;;;;6.75;5.13;;;;;;;24.90;55.31;98728.91;5149689;27;20019;-73
2022/07/26 00:33:41;;;;;;;9.25;5.60;;;;;;;24.93;55.67;98731.94;5149815;27;20250;-74
2022/07/26 00:36:07;;;;;;;12.23;5.63;;;;;;;24.92;55.48;98727.63;5149828;27;20068;-74
2022/07/26 00:38:32;;;;;;;7.38;5.97;;;;;;;24.90;55.65;98726.19;5149670;27;20089;-74
2022/07/26 00:40:58;;;;;;;7.70;6.00;;;;;;;24.90;55.67;98718.91;5148861;27;20034;-74
2022/07/26 00:43:24;;;;;;;6.03;5.43;;;;;;;24.89;55.39;98708.31;5149060;27;20197;-74
2022/07/26 00:45:49;;;;;;;5.63;5.03;;;;;;;24.87;55.40;98713.97;5149285;27;20727;-74
2022/07/26 00:48:16;;;;;;;6.88;5.82;;;;;;;24.82;55.65;98709.28;5149424;27;20083;-73
2022/07/26 00:50:41;;;;;;;9.65;5.60;;;;;;;24.78;55.99;98709.94;5131181;27;20216;-73
2022/07/26 00:53:07;;;;;;;8.40;5.63;;;;;;;24.73;56.24;98699.03;5148634;27;20097;-73
2022/07/26 00:55:32;;;;;;;7.38;5.40;;;;;;;24.77;56.13;98711.84;5149062;27;20019;-74
2022/07/26 00:58:00;;;;;;;7.03;6.15;;;;;;;24.84;55.97;98709.03;5148987;27;20023;-74
2022/07/26 01:00:26;;;;;;;7.40;6.45;;;;;;;24.86;55.85;98717.72;5149199;27;20027;-74
2022/07/26 01:02:53;;;;;;;11.63;5.95;;;;;;;24.84;55.69;98706.31;5149010;27;20038;-73
2022/07/26 01:05:19;;;;;;;6.95;5.85;;;;;;;24.81;55.62;98706.78;5149214;27;20247;-74
2022/07/26 01:07:45;;;;;;;8.93;4.72;;;;;;;24.79;55.84;98708.88;5148516;27;20018;-73
2022/07/26 01:10:12;;;;;;;10.60;6.50;;;;;;;24.78;55.81;98709.94;5148912;27;20023;-73
2022/07/26 01:12:39;;;;;;;12.85;5.30;;;;;;;24.70;56.04;98708.44;5148852;27;20027;-73
2022/07/26 01:15:05;;;;;;;7.18;6.28;;;;;;;24.74;55.97;98714.19;5149184;27;20023;-73
2022/07/26 01:17:31;;;;;;;10.35;6.25;;;;;;;24.74;55.94;98708.78;5148701;27;20019;-74
2022/07/26 01:19:57;;;;;;;7.88;6.32;;;;;;;24.71;55.77;98703.84;5148513;27;20195;-72
2022/07/26 01:22:22;;;;;;;6.70;5.25;;;;;;;24.67;56.17;98706.16;5148729;27;20023;-73
2022/07/26 01:24:47;;;;;;;7.05;6.00;;;;;;;24.61;55.99;98699.81;5145871;27;20030;-73
2022/07/26 01:27:13;;;;;;;5.38;4.88;;;;;;;24.65;56.26;98702.88;5149135;27;20027;-74
2022/07/26 01:29:38;;;;;;;10.20;6.00;;;;;;;24.73;56.21;98709.84;5148399;27;20053;-74
2022/07/26 01:32:04;;;;;;;6.05;5.00;;;;;;;24.72;56.18;98705.50;5148101;27;20243;-73
2022/07/26 01:34:31;;;;;;;7.43;5.40;;;;;;;24.69;55.96;98706.75;5148462;27;20053;-74
2022/07/26 01:36:56;;;;;;;8.30;5.60;;;;;;;24.69;55.86;98712.16;5148818;27;20038;-73
2022/07/26 01:39:22;;;;;;;7.97;5.53;;;;;;;24.69;55.98;98712.16;5148070;27;20031;-73
2022/07/26 01:41:48;;;;;;;8.60;5.30;;;;;;;24.70;56.14;98713.84;5148345;27;20134;-73
2022/07/26 01:44:13;;;;;;;6.68;5.43;;;;;;;24.69;55.87;98712.16;5148114;27;20142;-74
2022/07/26 01:46:39;;;;;;;9.65;6.38;;;;;;;24.75;55.98;98715.84;5148383;28;20132;-73
2022/07/26 01:49:07;;;;;;;9.07;6.25;;;;;;;24.81;55.62;98717.59;5146568;28;20022;-73
2022/07/26 01:51:33;;;;;;;8.18;6.75;;;;;;;24.86;55.71;98720.44;5128037;28;20024;-73
2022/07/26 01:53:59;;;;;;;6.47;5.88;;;;;;;24.84;55.84;98714.44;5147671;28;20030;-73
2022/07/26 01:56:24;;;;;;;7.00;5.45;;;;;;;24.76;55.89;98722.91;5148262;28;20035;-73
2022/07/26 01:58:50;;;;;;;8.90;5.65;;;;;;;24.75;55.77;98729.38;5148231;27;20053;-73
2022/07/26 02:01:16;;;;;;;7.88;6.18;;;;;;;24.73;55.75;98726.88;5148538;28;20023;-74
2022/07/26 02:03:41;;;;;;;7.45;5.75;;;;;;;24.77;55.69;98729.97;5148426;28;20050;-73
2022/07/26 02:06:07;;;;;;;12.45;6.60;;;;;;;24.86;55.61;98733.97;5148115;28;20026;-73
2022/07/26 02:08:32;;;;;;;11.65;6.53;;;;;;;24.86;55.54;98733.13;5148443;28;20140;-74
2022/07/26 02:11:01;;;;;;;9.15;5.63;;;;;;;24.81;55.27;98729.25;5148758;28;20015;-74
2022/07/26 02:13:38;;;;;;;9.00;6.32;;;;;;;24.75;55.55;98727.47;5148271;28;20027;-74
2022/07/26 02:16:06;;;;;;;6.82;5.65;;;;;;;24.65;56.25;98733.44;5148143;28;20030;-74
2022/07/26 02:18:32;;;;;;;10.98;6.25;;;;;;;24.61;56.44;98731.44;5148329;27;20043;-73
2022/07/26 02:20:59;;;;;;;12.02;6.75;;;;;;;24.61;56.08;98748.50;5148297;28;20127;-73
2022/07/26 02:23:27;;;;;;;11.80;6.63;;;;;;;24.60;56.69;98733.31;5148231;27;20249;-73
2022/07/26 02:25:54;;;;;;;8.18;5.88;;;;;;;24.56;56.44;98740.25;5133614;28;20027;-73
2022/07/26 02:28:20;;;;;;;7.50;6.60;;;;;;;24.54;56.87;98745.06;5127664;28;20054;-74
2022/07/26 02:30:47;;;;;;;9.40;6.75;;;;;;;24.49;57.09;98736.81;5127713;28;20072;-73
2022/07/26 02:33:13;;;;;;;11.02;6.47;;;;;;;24.48;57.25;98737.88;5127647;28;20023;-74
2022/07/26 02:35:40;;;;;;;10.90;6.30;;;;;;;24.44;57.04;98740.22;5145207;28;20203;-73
2022/07/26 02:38:08;;;;;;;11.77;6.55;;;;;;;24.44;57.10;98747.50;5148136;28;20271;-73
2022/07/26 02:40:35;;;;;;;6.80;5.70;;;;;;;24.48;56.72;98751.41;5147182;28;20144;-73
2022/07/26 02:43:01;;;;;;;11.85;6.93;;;;;;;24.56;56.83;98753.78;5148197;27;20026;-73
2022/07/26 02:45:27;;;;;;;8.98;6.25;;;;;;;24.64;56.46;98755.31;5151630;27;20031;-73
2022/07/26 02:47:54;;;;;;;13.93;7.15;;;;;;;24.65;56.62;98760.47;5151825;27;20110;-74
2022/07/26 02:50:21;;;;;;;7.88;6.88;;;;;;;24.66;56.75;98769.44;5151799;27;20082;-73
2022/07/26 02:52:47;;;;;;;11.00;6.93;;;;;;;24.65;56.52;98760.47;5151673;27;20019;-74
2022/07/26 02:55:18;;;;;;;9.60;7.93;;;;;;;24.70;56.43;98765.25;5150551;27;20027;-73
2022/07/26 02:57:44;;;;;;;9.10;7.00;;;;;;;24.72;56.23;98770.41;5151720;27;20233;-73
2022/07/26 03:00:12;;;;;;;8.13;7.10;;;;;;;24.67;56.49;98779.19;5151626;27;20033;-73
2022/07/26 03:02:37;;;;;;;11.02;6.50;;;;;;;24.66;56.72;98769.44;5151692;27;20019;-73
2022/07/26 03:05:05;;;;;;;8.57;7.32;;;;;;;24.75;56.37;98769.94;5150497;27;20220;-73
2022/07/26 03:07:31;;;;;;;9.15;7.28;;;;;;;24.75;56.18;98759.94;5151173;27;20034;-73
2022/07/26 03:09:57;;;;;;;8.07;5.95;;;;;;;24.85;55.85;98772.91;5151518;27;20030;-74
2022/07/26 03:12:22;;;;;;;9.82;6.80;;;;;;;24.94;56.13;98779.59;5132650;27;20035;-74
2022/07/26 03:14:48;;;;;;;6.55;5.75;;;;;;;24.95;55.91;98770.44;5150873;27;20035;-74
2022/07/26 03:17:14;;;;;;;7.88;6.20;;;;;;;25.05;55.62;98786.09;5150907;27;20019;-74
2022/07/26 03:19:40;;;;;;;8.15;7.15;;;;;;;25.11;55.50;98778.91;5151165;27;20019;-74
2022/07/26 03:22:05;;;;;;;10.40;6.60;;;;;;;25.21;55.36;98784.59;5151218;27;20161;-74
2022/07/26 03:24:31;;;;;;;9.57;6.72;;;;;;;25.31;55.07;98797.50;5154261;27;20027;-73
2022/07/26 03:26:56;;;;;;;9.45;7.32;;;;;;;25.40;54.81;98792.56;5130466;28;20023;-73
2022/07/26 03:29:21;;;;;;;8.32;7.20;;;;;;;25.49;54.76;98793.06;5130524;28;20247;-74
2022/07/26 03:31:47;;;;;;;11.73;7.80;;;;;;;25.53;54.72;98792.34;5130382;28;20023;-74
2022/07/26 03:34:12;;;;;;;8.75;7.78;;;;;;;25.48;55.02;98791.41;5142720;27;20015;-74
2022/07/26 03:36:38;;;;;;;12.52;8.10;;;;;;;25.49;55.02;98802.03;5151004;27;20178;-74
2022/07/26 03:39:03;;;;;;;7.93;7.13;;;;;;;25.52;54.93;98800.72;5150672;27;20082;-73
2022/07/26 03:41:30;;;;;;;8.52;6.78;;;;;;;25.54;54.73;98783.16;5132584;27;20041;-74
2022/07/26 03:43:56;;;;;;;8.30;7.50;;;;;;;25.67;54.82;98787.50;5150443;27;20035;-74
2022/07/26 03:46:22;;;;;;;10.38;7.55;;;;;;;25.66;54.71;98785.84;5150736;27;20184;-74
2022/07/26 03:48:47;;;;;;;11.50;8.05;;;;;;;25.69;54.47;98790.81;5150526;27;20079;-74
2022/07/26 03:51:12;;;;;;;9.98;7.93;;;;;;;25.70;54.56;98787.03;5150750;27;20083;-74
2022/07/26 03:53:38;;;;;;;9.15;7.07;;;;;;;25.75;54.25;98780.88;5149986;27;20031;-73
2022/07/26 03:58:47;;;;;;;12.30;7.35;;;;;;;25.83;54.00;98783.22;5150257;27;20029;-73
2022/07/26 04:01:13;;;;;;;11.07;7.82;;;;;;;25.87;54.05;98778.16;5150234;27;20023;-73
2022/07/26 04:03:38;;;;;;;8.43;7.30;;;;;;;25.81;54.10;98784.53;5131969;27;20026;-74
2022/07/26 04:06:04;;;;;;;15.30;8.30;;;;;;;25.77;54.65;98784.19;5150129;27;20034;-73
2022/07/26 04:08:29;;;;;;;12.95;7.55;;;;;;;25.78;54.55;98790.41;5150065;27;20187;-73
2022/07/26 04:10:55;;;;;;;13.52;8.52;;;;;;;25.78;54.71;98782.28;5150408;27;20104;-73
2022/07/26 04:13:22;;;;;;;11.55;7.13;;;;;;;25.81;54.40;98782.63;5149827;27;20026;-73
2022/07/26 04:15:48;;;;;;;13.52;7.93;;;;;;;25.86;54.46;98782.75;5149968;27;20067;-73
2022/07/26 04:18:14;;;;;;;8.85;7.18;;;;;;;25.83;54.49;98780.50;5150161;27;20027;-73
2022/07/26 04:20:40;;;;;;;9.88;6.97;;;;;;;25.82;54.42;98787.00;5150061;27;20030;-73
2022/07/26 04:23:05;;;;;;;14.32;7.47;;;;;;;25.84;54.60;98782.16;5149464;27;20027;-73
2022/07/26 04:25:33;;;;;;;11.27;7.28;;;;;;;25.94;54.47;98786.97;5149367;27;20026;-73
2022/07/26 04:27:59;;;;;;;10.18;7.60;;;;;;;26.11;54.21;98783.53;5149969;27;20095;-73
2022/07/26 04:30:24;;;;;;;7.55;6.20;;;;;;;26.20;53.67;98792.91;5149992;27;20040;-73
2022/07/26 04:32:50;;;;;;;11.65;8.45;;;;;;;26.29;53.62;98782.50;5148919;27;20236;-73
2022/07/26 04:35:15;;;;;;;10.70;8.77;;;;;;;26.45;53.27;98784.44;5149834;27;20131;-73
2022/07/26 04:37:42;;;;;;;9.88;8.80;;;;;;;26.48;53.29;98778.53;5149154;27;20027;-73
2022/07/26 04:40:09;;;;;;;12.95;8.80;;;;;;;26.59;52.92;98784.13;5149255;27;20147;-73
2022/07/26 04:42:35;;;;;;;11.35;8.68;;;;;;;26.70;52.78;98783.22;5149031;27;20019;-73
2022/07/26 04:45:02;;;;;;;11.18;9.10;;;;;;;26.93;52.10;98785.00;5143499;27;20034;-74
2022/07/26 04:47:27;;;;;;;11.43;8.20;;;;;;;27.16;51.86;98774.19;5138980;27;20018;-73
2022/07/26 04:49:53;;;;;;;10.52;8.75;;;;;;;27.44;51.53;98783.28;5170225;27;20059;-74
2022/07/26 04:52:18;;;;;;;13.20;8.70;;;;;;;27.50;50.69;98787.75;5162372;27;20042;-75
2022/07/26 04:54:43;;;;;;;10.40;9.15;;;;;;;27.59;50.55;98794.38;5149399;27;20055;-74
2022/07/26 04:57:09;;;;;;;13.45;8.65;;;;;;;27.74;50.36;98791.06;5148908;27;20019;-74
2022/07/26 04:59:34;;;;;;;13.48;8.02;;;;;;;27.89;50.01;98786.88;5149429;27;20086;-73
2022/07/26 05:02:00;;;;;;;10.85;7.72;;;;;;;28.06;50.10;98786.81;5148979;27;20023;-74
2022/07/26 05:04:26;;;;;;;9.02;7.38;;;;;;;28.26;49.35;98788.97;5149380;27;20225;-73
2022/07/26 05:06:51;;;;;;;10.07;8.15;;;;;;;28.43;49.17;98786.97;5148370;27;20031;-74
2022/07/26 05:09:17;;;;;;;12.20;8.70;;;;;;;28.53;48.37;98790.88;5149266;27;20027;-74
2022/07/26 05:11:42;;;;;;;11.68;8.10;;;;;;;28.65;48.10;98787.97;5148640;27;20021;-74
2022/07/26 05:14:07;;;;;;;9.43;7.70;;;;;;;28.75;47.82;98780.75;5142770;27;20019;-74
2022/07/26 05:16:33;;;;;;;9.70;8.32;;;;;;;28.84;47.64;98786.53;5128578;28;20111;-74
2022/07/26 05:18:59;;;;;;;9.15;8.13;;;;;;;28.83;47.35;98786.78;5128425;28;20019;-74
2022/07/26 05:21:26;;;;;;;12.50;8.00;;;;;;;28.87;47.25;98788.75;5132068;27;20023;-74
2022/07/26 05:23:52;;;;;;;13.35;8.30;;;;;;;28.93;47.02;98790.41;5147507;27;20144;-74
2022/07/26 05:26:17;;;;;;;10.05;7.50;;;;;;;29.00;47.17;98794.84;5148606;27;20015;-73
2022/07/26 05:28:43;;;;;;;9.85;7.75;;;;;;;29.10;47.14;98811.25;5148642;27;20095;-73
2022/07/26 05:31:08;;;;;;;13.02;7.55;;;;;;;29.16;46.38;98804.75;5148333;27;20023;-74
2022/07/26 05:33:34;;;;;;;8.77;7.63;;;;;;;29.19;46.63;98806.13;5148857;27;20471;-74
2022/07/26 05:35:59;;;;;;;13.25;7.63;;;;;;;29.23;46.64;98805.34;5148751;27;20027;-74
2022/07/26 05:38:24;;;;;;;12.45;8.07;;;;;;;29.31;46.24;98805.94;5148252;27;20054;-73
2022/07/26 05:40:50;;;;;;;7.55;6.80;;;;;;;29.34;46.20;98803.53;5147860;27;20102;-73
2022/07/26 05:43:15;;;;;;;9.55;6.68;;;;;;;29.34;46.25;98798.09;5148530;27;20023;-73
2022/07/26 05:45:41;;;;;;;8.77;6.93;;;;;;;29.32;45.96;98802.16;5148741;27;20244;-73
2022/07/26 05:48:06;;;;;;;9.00;6.93;;;;;;;29.28;46.34;98798.28;5147760;27;20023;-73
2022/07/26 05:50:32;;;;;;;10.68;6.60;;;;;;;29.26;45.59;98792.28;5148092;28;20029;-73
2022/07/26 05:52:57;;;;;;;10.50;7.47;;;;;;;29.28;45.80;98799.09;5148254;27;20030;-74
2022/07/26 05:55:23;;;;;;;8.98;6.63;;;;;;;29.26;45.83;98797.72;5148899;28;20145;-74
2022/07/26 05:57:48;;;;;;;7.82;7.03;;;;;;;29.20;45.74;98794.97;5147888;28;20068;-73
2022/07/26 06:00:14;;;;;;;9.68;7.47;;;;;;;29.13;46.06;98796.28;5148568;28;20047;-74
2022/07/26 06:02:40;;;;;;;9.80;7.07;;;;;;;29.06;45.80;98799.22;5147806;27;20018;-73
2022/07/26 06:05:06;;;;;;;8.05;7.25;;;;;;;28.92;46.11;98791.50;5148511;28;20311;-72
2022/07/26 06:07:31;;;;;;;10.85;7.28;;;;;;;28.86;46.41;98799.88;5148543;27;20023;-73
2022/07/26 06:09:57;;;;;;;8.27;7.03;;;;;;;28.87;46.03;98791.47;5148400;27;20023;-73
2022/07/26 06:12:23;;;;;;;10.00;7.68;;;;;;;28.88;46.35;98793.13;5148131;27;20034;-73
2022/07/26 06:14:48;;;;;;;10.77;7.95;;;;;;;28.83;46.20;98792.22;5148359;28;20019;-74
2022/07/26 06:17:14;;;;;;;10.63;7.05;;;;;;;28.63;46.02;98790.97;5148492;27;20181;-74
2022/07/26 06:19:39;;;;;;;8.75;7.95;;;;;;;28.45;46.27;98786.72;5152564;27;20022;-74
2022/07/26 06:22:05;;;;;;;9.82;7.57;;;;;;;28.28;46.72;98789.53;5151530;27;20047;-74
2022/07/26 06:24:30;;;;;;;10.90;8.07;;;;;;;28.09;47.77;98789.03;5149793;27;20088;-74
2022/07/26 06:26:56;;;;;;;10.70;7.53;;;;;;;27.89;48.51;98798.56;5131794;28;20058;-75
2022/07/26 06:29:23;;;;;;;10.48;8.68;;;;;;;27.86;48.60;98790.94;5151443;27;20137;-74
2022/07/26 06:31:49;;;;;;;10.90;8.60;;;;;;;27.81;48.84;98791.69;5151791;27;20030;-73
2022/07/26 06:34:15;;;;;;;12.70;8.82;;;;;;;27.80;49.02;98797.38;5151892;27;20042;-73
2022/07/26 06:36:41;;;;;;;9.02;7.75;;;;;;;27.79;48.52;98802.00;5152100;27;20031;-74
2022/07/26 06:39:06;;;;;;;10.40;8.55;;;;;;;27.77;48.50;98797.88;5151631;27;20254;-77
2022/07/26 06:41:32;;;;;;;12.70;8.50;;;;;;;27.72;48.48;98794.00;5151468;27;20031;-74
2022/07/26 06:43:57;;;;;;;10.70;8.38;;;;;;;27.70;48.54;98795.34;5151707;27;20027;-74
2022/07/26 06:46:23;;;;;;;10.20;7.72;;;;;;;27.64;48.67;98796.38;5152077;27;20232;-74
2022/07/26 06:48:48;;;;;;;8.57;7.53;;;;;;;27.64;48.71;98788.22;5151863;27;20030;-74
2022/07/26 06:51:14;;;;;;;11.30;8.00;;;;;;;27.63;48.44;98792.00;5151477;27;20152;-74
2022/07/26 06:53:39;;;;;;;7.53;6.75;;;;;;;27.66;48.98;98792.31;5151016;27;20033;-74
2022/07/26 06:56:05;;;;;;;12.48;7.85;;;;;;;27.68;49.31;98792.06;5151370;27;20026;-73
2022/07/26 06:58:31;;;;;;;11.82;7.18;;;;;;;27.70;49.35;98781.75;5150831;27;20232;-74
2022/07/26 07:00:56;;;;;;;11.05;7.75;;;;;;;27.75;48.81;98781.00;5150906;27;20252;-77
2022/07/26 07:03:22;;;;;;;10.15;8.43;;;;;;;27.77;48.86;98774.25;5151029;27;20051;-76
2022/07/26 07:05:47;;;;;;;13.13;8.68;;;;;;;27.80;48.99;98779.16;5151375;27;20047;-74
2022/07/26 07:08:13;;;;;;;10.40;8.98;;;;;;;27.81;48.77;98782.72;5151486;27;20090;-76
2022/07/26 07:10:39;;;;;;;9.65;7.57;;;;;;;27.78;48.86;98775.06;5151043;27;20124;-73
2022/07/26 07:13:05;;;;;;;15.32;7.60;;;;;;;27.79;48.29;98782.16;5151107;27;20086;-73
2022/07/26 07:15:30;;;;;;;11.00;8.23;;;;;;;27.78;48.40;98780.50;5151368;27;20255;-73
2022/07/26 07:17:56;;;;;;;11.77;7.75;;;;;;;27.75;48.23;98781.00;5151397;27;20034;-74
2022/07/26 07:20:21;;;;;;;10.75;7.97;;;;;;;27.75;48.22;98772.84;5151052;27;20019;-74
2022/07/26 07:22:47;;;;;;;16.58;8.05;;;;;;;27.76;48.10;98771.78;5150964;27;20216;-75
2022/07/26 07:25:12;;;;;;;8.52;7.32;;;;;;;27.79;47.77;98782.16;5151279;27;20129;-76
2022/07/26 07:27:38;;;;;;;8.35;6.95;;;;;;;27.79;47.24;98782.97;5151207;27;20034;-74
2022/07/26 07:30:05;;;;;;;7.80;6.90;;;;;;;27.80;46.99;98778.34;5150278;27;20023;-73
2022/07/26 07:32:30;;;;;;;7.45;6.60;;;;;;;27.80;46.93;98781.88;5132228;27;20027;-75
2022/07/26 07:34:56;;;;;;;12.82;7.45;;;;;;;27.82;46.88;98778.94;5151175;27;20065;-75
2022/07/26 07:37:21;;;;;;;7.43;6.32;;;;;;;27.88;46.88;98780.63;5151065;27;20240;-74
2022/07/26 07:39:47;;;;;;;8.30;7.03;;;;;;;27.93;46.43;98777.97;5150512;27;20063;-73
2022/07/26 07:42:13;;;;;;;9.55;7.13;;;;;;;27.94;46.39;98784.25;5150846;27;20237;-73
2022/07/26 07:44:40;;;;;;;8.98;6.97;;;;;;;27.95;46.89;98783.13;5150985;27;20080;-74
2022/07/26 07:47:07;;;;;;;10.75;6.55;;;;;;;27.96;46.67;98782.06;5150919;27;20023;-75
2022/07/26 07:49:33;;;;;;;14.98;6.95;;;;;;;28.02;46.74;98781.06;5150465;27;20076;-75
2022/07/26 07:51:59;;;;;;;8.25;6.22;;;;;;;28.00;46.33;98788.66;5150592;27;20035;-75
2022/07/26 07:54:24;;;;;;;7.70;6.35;;;;;;;27.92;46.26;98787.19;5150567;27;20099;-75
2022/07/26 07:56:50;;;;;;;9.82;6.38;;;;;;;27.92;46.17;98783.69;5150653;27;20273;-75
2022/07/26 07:59:17;;;;;;;10.63;7.15;;;;;;;27.93;46.30;98788.84;5150337;27;20029;-76
2022/07/26 08:01:42;;;;;;;9.90;6.65;;;;;;;27.91;45.77;98779.31;5149895;27;20019;-74
2022/07/26 08:04:08;;;;;;;7.43;6.72;;;;;;;27.92;45.66;98781.75;5150408;27;20034;-75
2022/07/26 08:06:34;;;;;;;8.85;6.90;;;;;;;27.91;46.38;98779.31;5150578;27;20034;-75
2022/07/26 08:08:59;;;;;;;8.30;7.03;;;;;;;27.92;46.09;98772.78;5150046;27;20232;-75
2022/07/26 08:11:25;;;;;;;8.10;7.30;;;;;;;27.96;46.11;98788.34;5129851;28;20042;-76
2022/07/26 08:13:50;;;;;;;10.52;7.00;;;;;;;27.98;46.40;98786.19;5147056;27;20034;-75
2022/07/26 08:16:16;;;;;;;9.48;7.75;;;;;;;27.99;46.16;98787.00;5149990;27;20055;-74
2022/07/26 08:18:42;;;;;;;8.43;7.53;;;;;;;28.02;46.51;98787.31;5149972;27;20090;-74
2022/07/26 08:21:07;;;;;;;7.43;6.28;;;;;;;28.07;46.54;98783.84;5150195;27;20220;-74
2022/07/26 08:23:32;;;;;;;10.73;7.10;;;;;;;28.06;46.78;98779.47;5149911;27;20161;-75
2022/07/26 08:25:58;;;;;;;10.13;6.85;;;;;;;28.10;46.61;98787.97;5135626;27;20047;-75
2022/07/26 08:28:26;;;;;;;9.73;7.38;;;;;;;28.13;46.04;98790.19;5149863;27;20015;-75
2022/07/26 08:30:51;;;;;;;8.65;7.32;;;;;;;28.12;46.37;98786.63;5150032;27;20015;-76
2022/07/26 08:33:17;;;;;;;8.15;7.07;;;;;;;28.13;45.97;98787.47;5149927;27;20029;-75
2022/07/26 08:35:42;;;;;;;9.48;7.72;;;;;;;28.12;46.15;98789.34;5149739;27;20019;-75
2022/07/26 08:38:08;;;;;;;12.38;7.85;;;;;;;28.13;46.27;98788.28;5149117;27;20026;-75
2022/07/26 08:40:33;;;;;;;9.43;7.60;;;;;;;28.14;46.04;98791.84;5148514;27;20160;-75
2022/07/26 08:43:00;;;;;;;10.20;7.50;;;;;;;28.11;46.24;98795.06;5149328;27;20023;-75
2022/07/26 08:45:27;;;;;;;8.93;6.60;;;;;;;28.08;46.29;98795.53;5149617;27;20049;-76
2022/07/26 08:47:54;;;;;;;8.98;6.47;;;;;;;28.07;46.71;98791.16;5149077;27;20067;-76
2022/07/26 08:50:20;;;;;;;12.02;6.55;;;;;;;28.11;46.78;98797.78;5149477;27;20333;-76
2022/07/26 08:52:46;;;;;;;11.57;6.97;;;;;;;28.16;46.30;98792.41;5149167;27;20081;-75
2022/07/26 08:55:17;;;;;;;10.63;7.35;;;;;;;28.15;46.49;98790.75;5149549;27;20030;-75
2022/07/26 08:57:43;;;;;;;13.35;7.05;;;;;;;28.18;46.26;98792.94;5130995;27;20114;-75
2022/07/26 09:00:20;;;;;;;6.97;6.28;;;;;;;28.22;46.22;98796.81;5149041;27;20103;-75
2022/07/26 09:02:47;;;;;;;7.70;6.28;;;;;;;28.23;45.72;98803.09;5148111;27;20050;-74
2022/07/26 09:05:13;;;;;;;8.27;6.18;;;;;;;28.22;45.68;98793.28;5148496;27;20088;-76
2022/07/26 09:07:39;;;;;;;11.25;6.97;;;;;;;28.25;44.88;98793.59;5147978;27;20034;-74
2022/07/26 09:10:10;;;;;;;7.95;6.55;;;;;;;28.27;44.89;98799.59;5148176;27;20034;-74
2022/07/26 09:12:37;;;;;;;8.45;6.68;;;;;;;28.25;45.34;98799.03;5147940;27;20015;-75
2022/07/26 09:15:04;;;;;;;8.90;7.35;;;;;;;28.24;45.18;98797.38;5149068;27;20043;-75
2022/07/26 09:17:41;;;;;;;7.07;6.18;;;;;;;28.30;45.05;98798.25;5148081;27;20007;-74
2022/07/26 09:20:18;;;;;;;8.32;6.78;;;;;;;28.32;44.86;98805.06;5148902;27;20027;-75
2022/07/26 09:22:57;;;;;;;8.02;7.30;;;;;;;28.33;45.17;98812.16;5148329;27;20214;-75
2022/07/26 09:25:24;;;;;;;10.20;6.43;;;;;;;28.31;44.97;98810.78;5140769;27;20090;-74
2022/07/26 09:27:51;;;;;;;8.18;6.40;;;;;;;28.33;45.00;98808.63;5147911;27;20030;-74
2022/07/26 09:30:17;;;;;;;9.35;6.57;;;;;;;28.41;44.96;98808.16;5148451;27;20142;-74
2022/07/26 09:33:02;;;;;;;7.25;5.82;;;;;;;28.40;45.03;98801.06;5154882;27;20026;-76
2022/07/26 09:35:30;;;;;;;8.13;6.53;;;;;;;28.38;44.61;98799.69;5148495;27;20038;-75
2022/07/26 09:37:56;;;;;;;9.60;6.72;;;;;;;28.36;45.53;98799.13;5149486;27;20027;-76
2022/07/26 09:40:22;;;;;;;7.30;6.25;;;;;;;28.29;45.46;98802.88;5149239;27;20035;-76
2022/07/26 09:43:03;;;;;;;8.63;7.25;;;;;;;28.24;45.36;98802.81;5148116;27;20049;-75
2022/07/26 09:45:31;;;;;;;7.30;6.32;;;;;;;28.22;45.63;98794.09;5148675;27;20023;-77
2022/07/26 09:47:57;;;;;;;9.40;6.90;;;;;;;28.20;45.39;98798.97;5148693;27;20054;-75
2022/07/26 09:50:28;;;;;;;9.05;6.90;;;;;;;28.20;45.64;98793.53;5147972;27;20023;-75
2022/07/26 09:53:02;;;;;;;9.88;7.43;;;;;;;28.17;45.75;98803.03;5146090;27;20050;-75
2022/07/26 09:55:29;;;;;;;7.10;6.40;;;;;;;28.18;45.75;98801.09;5147965;27;20019;-75
2022/07/26 09:57:54;;;;;;;7.85;6.70;;;;;;;28.19;45.79;98800.03;5147835;27;20072;-79
2022/07/26 10:00:20;;;;;;;9.02;7.15;;;;;;;28.19;46.10;98797.31;5148273;28;20031;-75
2022/07/26 10:02:46;;;;;;;8.35;5.72;;;;;;;28.15;46.32;98793.50;5145384;27;20136;-76
2022/07/26 10:05:11;;;;;;;8.00;7.15;;;;;;;28.13;46.09;98798.34;5148254;28;20019;-76
2022/07/26 10:07:37;;;;;;;14.85;6.55;;;;;;;28.16;45.77;98797.84;5148534;28;20018;-76
2022/07/26 10:10:14;;;;;;;10.25;7.97;;;;;;;28.19;45.91;98800.03;5148257;28;20132;-76
2022/07/26 10:12:44;;;;;;;9.38;7.07;;;;;;;28.21;45.78;98802.53;5148317;27;20031;-75
2022/07/26 10:15:35;;;;;;;8.32;6.32;;;;;;;28.18;46.47;98803.84;5148261;27;20175;-77
2022/07/26 10:18:02;;;;;;;9.20;7.40;;;;;;;28.18;46.30;98803.84;5147786;27;20033;-77
2022/07/26 10:23:50;;;;;;;7.72;6.93;;;;;;;28.25;45.94;98806.34;5146194;27;20087;-75
2022/07/26 10:26:31;;;;;;;12.65;7.70;;;;;;;28.29;46.13;98802.06;5148784;27;20156;-73
2022/07/26 10:29:15;;;;;;;8.32;7.53;;;;;;;28.31;45.86;98797.19;5148124;28;20035;-76
2022/07/26 10:31:41;;;;;;;7.78;6.90;;;;;;;28.33;46.12;98804.00;5130909;27;20144;-75
2022/07/26 10:34:07;;;;;;;10.43;7.18;;;;;;;28.30;46.05;98800.97;5147569;28;20057;-77
2022/07/26 10:36:38;;;;;;;8.93;7.35;;;;;;;28.30;46.54;98803.69;5144598;27;20221;-78
2022/07/26 10:39:03;;;;;;;;;;;;;;;28.20;46.67;98804.41;5144829;28;20023;-78
2022/07/26 10:41:39;;;;;;;9.60;7.50;;;;;;;28.17;46.69;98792.16;5148026;27;19903;-77
2022/07/26 10:44:18;;;;;;;11.43;6.85;;;;;;;28.18;46.84;98798.38;5147937;27;20022;-79
2022/07/26 10:47:01;;;;;;;8.52;7.20;;;;;;;28.14;46.95;98794.56;5147764;28;20147;-78
2022/07/26 10:49:40;;;;;;;10.15;6.57;;;;;;;28.11;47.20;98795.88;5148698;27;20121;-80
2022/07/26 10:52:07;;;;;;;12.68;7.22;;;;;;;28.10;47.51;98787.97;5152458;27;20023;-78
2022/07/26 10:54:55;;;;;;;8.50;7.22;;;;;;;28.12;46.77;98794.00;5147832;28;20244;-78
2022/07/26 10:57:21;;;;;;;8.93;8.07;;;;;;;28.15;46.94;98788.84;5147929;27;20102;-78
2022/07/26 10:59:47;;;;;;;8.77;7.88;;;;;;;28.20;46.49;98782.63;5147939;27;20034;-79
2022/07/26 11:02:20;;;;;;;11.43;8.23;;;;;;;28.18;46.74;98790.22;5147948;28;20131;-79
2022/07/26 11:04:46;;;;;;;8.40;7.50;;;;;;;28.19;47.01;98780.19;5148056;27;20172;-78
2022/07/26 11:07:12;;;;;;;11.32;7.38;;;;;;;28.17;47.42;98767.66;5151667;27;20026;-78
2022/07/26 11:09:38;;;;;;;8.65;7.32;;;;;;;28.14;47.65;98773.59;5133674;27;20026;-78
2022/07/26 11:12:23;;;;;;;7.88;6.78;;;;;;;28.11;47.67;98776.84;5151644;27;20018;-77
2022/07/26 11:14:49;;;;;;;8.52;7.72;;;;;;;28.13;47.29;98776.59;5130925;28;20034;-78
2022/07/26 11:17:29;;;;;;;14.82;9.10;;;;;;;28.21;46.96;98772.59;5139139;27;20042;-77
2022/07/26 11:19:56;;;;;;;9.05;7.60;;;;;;;28.21;46.65;98770.69;5151248;27;20027;-78
2022/07/26 11:22:29;;;;;;;8.10;7.38;;;;;;;28.18;47.19;98768.47;5150573;27;20026;-79
2022/07/26 11:24:55;;;;;;;12.02;7.93;;;;;;;28.17;46.59;98764.94;5136506;27;20026;-78
2022/07/26 11:27:20;;;;;;;14.90;8.18;;;;;;;28.20;46.34;98769.03;5151148;27;20068;-78
2022/07/26 11:29:46;;;;;;;13.45;9.07;;;;;;;28.22;46.88;98768.81;5151303;27;20035;-78
2022/07/26 11:32:20;;;;;;;13.13;8.57;;;;;;;28.23;47.26;98773.16;5150692;27;20034;-78
2022/07/26 11:34:46;;;;;;;13.55;8.40;;;;;;;28.20;47.55;98771.75;5151222;27;20041;-77